createdAt,value
2018-09-18T00:01:42.031Z,17.97
2018-09-18T00:04:10.571Z,17.99
2018-09-18T00:06:39.147Z,17.99
2018-09-18T00:09:09.662Z,17.98
2018-09-18T00:11:38.263Z,17.94
2018-09-18T00:14:07.060Z,17.92
2018-09-18T00:16:35.767Z,17.91
2018-09-18T00:19:04.536Z,17.89
2018-09-18T00:21:33.095Z,17.87
2018-09-18T00:24:01.703Z,17.85
2018-09-18T00:26:30.278Z,17.82
2018-09-18T00:28:58.848Z,17.75
2018-09-18T00:31:27.495Z,17.78
2018-09-18T00:33:56.055Z,17.75
2018-09-18T00:36:24.616Z,17.75
2018-09-18T00:38:53.182Z,17.73
2018-09-18T00:41:21.733Z,17.72
2018-09-18T00:43:50.287Z,17.71
2018-09-18T00:46:18.871Z,17.64
2018-09-18T00:48:47.416Z,17.69
2018-09-18T00:51:15.967Z,17.72
2018-09-18T00:53:44.626Z,17.72
2018-09-18T00:56:13.191Z,17.65
2018-09-18T00:58:41.795Z,17.62
2018-09-18T01:01:10.447Z,17.62
2018-09-18T01:03:39.036Z,17.62
2018-09-18T01:06:07.659Z,17.60
2018-09-18T01:08:36.890Z,17.58
2018-09-18T01:11:05.466Z,17.56
2018-09-18T01:13:34.027Z,17.55
2018-09-18T01:16:02.703Z,17.54
2018-09-18T01:18:36.444Z,17.52
2018-09-18T01:21:05.108Z,17.55
2018-09-18T01:23:33.663Z,17.56
2018-09-18T01:26:02.806Z,17.52
2018-09-18T01:28:31.475Z,17.52
2018-09-18T01:31:00.044Z,17.50
2018-09-18T01:33:28.664Z,17.54
2018-09-18T01:35:57.379Z,17.52
2018-09-18T01:38:26.246Z,17.50
2018-09-18T01:40:55.543Z,17.54
2018-09-18T01:43:24.121Z,17.53
2018-09-18T01:45:52.671Z,17.46
2018-09-18T01:48:21.239Z,17.48
2018-09-18T01:50:49.822Z,17.45
2018-09-18T01:53:19.003Z,17.45
2018-09-18T01:55:47.544Z,17.43
2018-09-18T01:58:16.247Z,17.44
2018-09-18T02:00:44.803Z,17.43
2018-09-18T02:03:13.357Z,17.43
2018-09-18T02:05:42.191Z,17.45
2018-09-18T02:08:11.128Z,17.45
2018-09-18T02:10:39.758Z,17.48
2018-09-18T02:13:08.499Z,17.48
2018-09-18T02:15:37.060Z,17.42
2018-09-18T02:18:05.643Z,17.42
2018-09-18T02:20:34.256Z,17.40
2018-09-18T02:23:02.804Z,17.37
2018-09-18T02:25:31.392Z,17.39
2018-09-18T02:28:00.012Z,17.36
2018-09-18T02:30:28.616Z,17.34
2018-09-18T02:32:57.151Z,17.33
2018-09-18T02:35:25.772Z,17.28
2018-09-18T02:37:54.319Z,17.26
2018-09-18T02:40:22.871Z,17.30
2018-09-18T02:42:51.507Z,17.24
2018-09-18T02:45:20.479Z,17.21
2018-09-18T02:47:49.056Z,17.13
2018-09-18T02:50:17.744Z,17.20
2018-09-18T02:52:46.289Z,17.18
2018-09-18T02:55:15.272Z,17.22
2018-09-18T02:57:43.864Z,17.19
2018-09-18T03:00:12.691Z,17.28
2018-09-18T03:02:41.229Z,17.30
2018-09-18T03:05:10.376Z,17.32
2018-09-18T03:07:38.959Z,17.34
2018-09-18T03:10:07.835Z,17.38
2018-09-18T03:12:36.860Z,17.40
2018-09-18T03:15:05.475Z,17.42
2018-09-18T03:17:34.021Z,17.44
2018-09-18T03:20:02.681Z,17.46
2018-09-18T03:22:31.258Z,17.49
2018-09-18T03:24:59.806Z,17.50
2018-09-18T03:27:28.725Z,17.48
2018-09-18T03:29:57.169Z,17.50
2018-09-18T03:32:25.722Z,17.52
2018-09-18T03:34:54.484Z,17.54
2018-09-18T03:37:23.052Z,17.53
2018-09-18T03:39:51.598Z,17.60
2018-09-18T03:42:20.275Z,17.61
2018-09-18T03:44:48.824Z,17.61
2018-09-18T03:47:21.159Z,17.63
2018-09-18T03:49:50.769Z,17.66
2018-09-18T03:52:19.309Z,17.69
2018-09-18T03:54:47.895Z,17.75
2018-09-18T03:57:17.097Z,17.75
2018-09-18T03:59:45.639Z,17.82
2018-09-18T04:02:14.244Z,17.82
2018-09-18T04:04:42.799Z,17.80
2018-09-18T04:07:11.343Z,17.83
2018-09-18T04:09:39.944Z,17.83
2018-09-18T04:12:08.484Z,17.82
2018-09-18T04:14:37.061Z,17.77
2018-09-18T04:17:05.800Z,17.77
2018-09-18T04:19:34.354Z,17.79
2018-09-18T04:22:03.504Z,17.81
2018-09-18T04:24:32.095Z,17.86
2018-09-18T04:27:00.651Z,17.82
2018-09-18T04:29:29.200Z,17.82
2018-09-18T04:31:57.856Z,17.87
2018-09-18T04:34:26.415Z,17.90
2018-09-18T04:36:54.951Z,17.93
2018-09-18T04:39:23.548Z,17.94
2018-09-18T04:41:52.148Z,17.97
2018-09-18T04:44:20.683Z,17.93
2018-09-18T04:46:49.352Z,17.94
2018-09-18T04:49:17.925Z,17.96
2018-09-18T04:51:46.471Z,17.99
2018-09-18T04:54:15.147Z,18.00
2018-09-18T04:56:43.711Z,17.98
2018-09-18T04:59:12.268Z,18.03
2018-09-18T05:01:40.920Z,17.97
2018-09-18T05:04:09.467Z,17.96
2018-09-18T05:06:38.503Z,17.98
2018-09-18T05:09:09.886Z,17.98
2018-09-18T05:11:38.449Z,18.00
2018-09-18T05:14:07.418Z,17.99
2018-09-18T05:16:35.963Z,17.96
2018-09-18T05:19:04.526Z,17.93
2018-09-18T05:21:33.387Z,17.93
2018-09-18T05:24:02.043Z,17.92
2018-09-18T05:26:31.015Z,17.93
2018-09-18T05:28:59.596Z,17.94
2018-09-18T05:31:28.274Z,17.94
2018-09-18T05:33:56.833Z,17.95
2018-09-18T05:36:25.380Z,17.95
2018-09-18T05:38:53.958Z,17.99
2018-09-18T05:41:22.504Z,17.99
2018-09-18T05:43:51.095Z,18.03
2018-09-18T05:46:19.683Z,18.10
2018-09-18T05:48:48.237Z,18.20
2018-09-18T05:51:16.812Z,18.31
2018-09-18T05:53:45.494Z,18.42
2018-09-18T05:56:14.032Z,18.56
2018-09-18T05:58:42.593Z,18.71
2018-09-18T06:01:11.228Z,18.90
2018-09-18T06:03:39.783Z,19.10
2018-09-18T06:06:08.389Z,19.29
2018-09-18T06:08:36.975Z,19.47
2018-09-18T06:11:05.916Z,19.68
2018-09-18T06:13:34.484Z,19.89
2018-09-18T06:16:03.983Z,20.14
2018-09-18T06:18:32.796Z,20.24
2018-09-18T06:21:01.359Z,20.59
2018-09-18T06:23:30.258Z,20.79
2018-09-18T06:25:58.807Z,20.86
2018-09-18T06:28:27.347Z,20.90
2018-09-18T06:30:56.063Z,21.06
2018-09-18T06:33:24.624Z,21.01
2018-09-18T06:35:53.362Z,21.11
2018-09-18T06:38:21.975Z,21.31
2018-09-18T06:40:50.563Z,21.61
2018-09-18T06:43:19.542Z,21.81
2018-09-18T06:45:48.179Z,21.94
2018-09-18T06:48:16.728Z,22.15
2018-09-18T06:50:45.350Z,22.29
2018-09-18T06:53:13.959Z,22.46
2018-09-18T06:55:42.511Z,22.82
2018-09-18T06:58:11.061Z,23.06
2018-09-18T07:00:39.791Z,23.38
2018-09-18T07:03:08.339Z,23.63
2018-09-18T07:05:36.956Z,23.85
2018-09-18T07:08:05.634Z,24.18
2018-09-18T07:10:34.195Z,24.47
2018-09-18T07:13:03.199Z,24.53
2018-09-18T07:15:31.843Z,24.57
2018-09-18T07:18:00.513Z,24.63
2018-09-18T07:20:29.080Z,24.80
2018-09-18T07:22:57.735Z,24.94
2018-09-18T07:25:26.487Z,25.23
2018-09-18T07:27:55.128Z,25.48
2018-09-18T07:30:23.970Z,25.68
2018-09-18T07:32:52.519Z,25.72
2018-09-18T07:35:21.079Z,25.97
2018-09-18T07:37:49.751Z,26.07
2018-09-18T07:40:18.621Z,26.40
2018-09-18T07:42:47.199Z,26.78
2018-09-18T07:45:15.767Z,26.96
2018-09-18T07:47:44.314Z,27.22
2018-09-18T07:50:13.354Z,27.53
2018-09-18T07:52:41.939Z,27.63
2018-09-18T07:55:10.487Z,27.89
2018-09-18T07:57:39.032Z,28.04
2018-09-18T08:00:07.663Z,28.23
2018-09-18T08:02:36.219Z,28.40
2018-09-18T08:05:04.919Z,28.57
2018-09-18T08:07:33.600Z,28.69
2018-09-18T08:10:02.163Z,28.75
2018-09-18T08:12:30.719Z,28.89
2018-09-18T08:14:59.324Z,28.94
2018-09-18T08:17:27.867Z,29.12
2018-09-18T08:19:56.751Z,29.19
2018-09-18T08:22:25.378Z,29.32
2018-09-18T08:24:53.926Z,29.17
2018-09-18T08:27:22.476Z,29.00
2018-09-18T08:29:51.451Z,29.21
2018-09-18T08:32:20.021Z,29.45
2018-09-18T08:34:48.557Z,29.76
2018-09-18T08:37:17.587Z,30.05
2018-09-18T08:39:46.167Z,30.22
2018-09-18T08:42:14.717Z,30.49
2018-09-18T08:44:43.704Z,30.77
2018-09-18T08:47:12.252Z,31.10
2018-09-18T08:49:41.291Z,31.18
2018-09-18T08:52:10.505Z,31.16
2018-09-18T08:54:39.008Z,31.35
2018-09-18T08:57:07.575Z,31.58
2018-09-18T08:59:36.150Z,31.77
2018-09-18T09:02:04.786Z,32.13
2018-09-18T09:04:33.312Z,32.14
2018-09-18T09:07:01.943Z,32.18
2018-09-18T09:09:30.547Z,32.49
2018-09-18T09:11:59.195Z,32.86
2018-09-18T09:14:28.456Z,33.12
2018-09-18T09:16:56.939Z,32.97
2018-09-18T09:19:25.520Z,33.22
2018-09-18T09:21:54.293Z,33.18
2018-09-18T09:24:22.762Z,33.75
2018-09-18T09:26:51.373Z,34.00
2018-09-18T09:29:19.900Z,34.47
2018-09-18T09:31:48.712Z,34.46
2018-09-18T09:34:17.268Z,34.54
2018-09-18T09:36:45.923Z,34.82
2018-09-18T09:39:14.419Z,35.05
2018-09-18T09:41:43.127Z,35.05
2018-09-18T09:44:11.729Z,35.40
2018-09-18T09:46:40.289Z,35.59
2018-09-18T09:49:09.410Z,35.68
2018-09-18T09:51:38.036Z,35.95
2018-09-18T09:54:07.170Z,36.26
2018-09-18T09:56:36.403Z,36.74
2018-09-18T09:59:05.208Z,36.91
2018-09-18T10:01:39.071Z,36.96
2018-09-18T10:04:08.036Z,37.57
2018-09-18T10:06:36.596Z,37.88
2018-09-18T10:09:08.227Z,38.10
2018-09-18T10:11:36.791Z,38.65
2018-09-18T10:14:05.348Z,38.81
2018-09-18T10:16:34.368Z,39.00
2018-09-18T10:19:02.920Z,38.89
2018-09-18T10:21:31.575Z,38.96
2018-09-18T10:24:00.185Z,38.88
2018-09-18T10:26:28.914Z,38.90
2018-09-18T10:28:57.324Z,39.28
2018-09-18T10:31:25.936Z,39.46
2018-09-18T10:33:54.596Z,39.44
2018-09-18T10:36:23.280Z,38.76
2018-09-18T10:38:51.947Z,37.55
2018-09-18T10:41:20.739Z,37.25
2018-09-18T10:43:49.260Z,37.19
2018-09-18T10:46:17.859Z,36.93
2018-09-18T10:48:52.427Z,35.59
2018-09-18T10:51:21.892Z,34.99
2018-09-18T10:53:50.559Z,35.91
2018-09-18T10:56:19.100Z,35.67
2018-09-18T10:58:48.105Z,34.98
2018-09-18T11:01:16.668Z,34.67
2018-09-18T11:03:45.343Z,34.21
2018-09-18T11:06:13.975Z,34.12
2018-09-18T11:08:42.534Z,34.12
2018-09-18T11:11:11.216Z,34.07
2018-09-18T11:13:39.834Z,34.27
2018-09-18T11:16:08.595Z,34.46
2018-09-18T11:18:37.112Z,34.07
2018-09-18T11:21:05.822Z,34.50
2018-09-18T11:23:34.776Z,35.97
2018-09-18T11:26:03.457Z,36.48
2018-09-18T11:28:32.155Z,36.79
2018-09-18T11:31:07.369Z,37.42
2018-09-18T11:33:35.953Z,38.63
2018-09-18T11:36:04.557Z,39.38
2018-09-18T11:38:33.125Z,40.56
2018-09-18T11:41:01.799Z,41.39
2018-09-18T11:43:30.995Z,41.82
2018-09-18T11:45:59.705Z,41.90
2018-09-18T11:48:28.263Z,42.08
2018-09-18T11:50:57.069Z,43.14
2018-09-18T11:53:25.619Z,44.24
2018-09-18T11:55:54.207Z,45.07
2018-09-18T11:58:22.786Z,44.83
2018-09-18T12:00:51.387Z,44.21
2018-09-18T12:03:20.193Z,41.60
2018-09-18T12:05:48.796Z,39.45
2018-09-18T12:08:17.363Z,37.88
2018-09-18T12:10:46.023Z,36.81
2018-09-18T12:13:14.951Z,35.66
2018-09-18T12:15:43.631Z,34.94
2018-09-18T12:18:12.247Z,34.49
2018-09-18T12:20:40.819Z,33.97
2018-09-18T12:23:09.503Z,33.83
2018-09-18T12:25:38.100Z,33.72
2018-09-18T12:28:06.656Z,33.76
2018-09-18T12:30:35.252Z,33.76
2018-09-18T12:33:03.942Z,33.52
2018-09-18T12:35:32.637Z,33.46
2018-09-18T12:38:01.845Z,33.30
2018-09-18T12:40:30.521Z,33.21
2018-09-18T12:42:59.066Z,33.06
2018-09-18T12:45:27.647Z,32.85
2018-09-18T12:47:56.336Z,32.50
2018-09-18T12:50:25.048Z,32.51
2018-09-18T12:52:53.507Z,32.50
2018-09-18T12:55:22.191Z,32.49
2018-09-18T12:57:50.768Z,32.54
2018-09-18T13:00:19.444Z,32.66
2018-09-18T13:02:47.975Z,32.67
2018-09-18T13:05:16.534Z,32.60
2018-09-18T13:07:45.079Z,32.27
2018-09-18T13:10:13.712Z,31.97
2018-09-18T13:12:42.601Z,32.09
2018-09-18T13:15:11.607Z,32.00
2018-09-18T13:17:41.361Z,31.99
2018-09-18T13:20:09.781Z,32.13
2018-09-18T13:22:38.403Z,32.25
2018-09-18T13:25:07.135Z,32.17
2018-09-18T13:27:35.746Z,32.23
2018-09-18T13:30:04.648Z,32.08
2018-09-18T13:32:33.235Z,32.19
2018-09-18T13:35:01.828Z,32.13
2018-09-18T13:37:30.375Z,31.91
2018-09-18T13:39:59.863Z,31.91
2018-09-18T13:42:28.411Z,31.97
2018-09-18T13:44:56.948Z,31.77
2018-09-18T13:47:25.565Z,31.68
2018-09-18T13:49:54.117Z,31.64
2018-09-18T13:52:22.675Z,31.59
2018-09-18T13:54:51.319Z,31.55
2018-09-18T13:57:19.971Z,31.43
2018-09-18T13:59:48.547Z,31.32
2018-09-18T14:02:17.250Z,31.05
2018-09-18T14:04:45.808Z,30.98
2018-09-18T14:07:14.396Z,30.79
2018-09-18T14:09:43.141Z,30.76
2018-09-18T14:12:11.735Z,30.70
2018-09-18T14:14:40.350Z,30.80
2018-09-18T14:17:09.244Z,30.88
2018-09-18T14:19:37.800Z,30.88
2018-09-18T14:22:06.380Z,30.94
2018-09-18T14:24:35.047Z,30.85
2018-09-18T14:27:03.693Z,30.91
2018-09-18T14:29:32.239Z,30.81
2018-09-18T14:32:00.852Z,30.70
2018-09-18T14:34:29.400Z,30.64
2018-09-18T14:36:57.971Z,30.58
2018-09-18T14:39:27.364Z,30.51
2018-09-18T14:41:55.955Z,30.49
2018-09-18T14:44:24.519Z,30.54
2018-09-18T14:46:53.168Z,30.47
2018-09-18T14:49:21.700Z,30.46
2018-09-18T14:51:50.269Z,30.37
2018-09-18T14:54:18.871Z,30.35
2018-09-18T14:56:47.428Z,30.24
2018-09-18T14:59:15.983Z,30.24
2018-09-18T15:01:44.731Z,30.21
2018-09-18T15:04:13.304Z,30.14
2018-09-18T15:06:41.870Z,30.06
2018-09-18T15:09:11.636Z,29.93
2018-09-18T15:11:40.292Z,29.84
2018-09-18T15:14:09.519Z,29.79
2018-09-18T15:16:38.798Z,29.75
2018-09-18T15:19:08.024Z,29.72
2018-09-18T15:21:37.036Z,29.70
2018-09-18T15:24:05.704Z,29.56
2018-09-18T15:26:34.255Z,29.52
2018-09-18T15:29:02.836Z,29.45
2018-09-18T15:31:31.615Z,29.38
2018-09-18T15:34:00.241Z,29.33
2018-09-18T15:36:28.779Z,29.27
2018-09-18T15:38:57.364Z,29.17
2018-09-18T15:41:26.377Z,29.10
2018-09-18T15:43:54.931Z,29.07
2018-09-18T15:46:23.615Z,29.05
2018-09-18T15:48:52.176Z,29.02
2018-09-18T15:51:20.727Z,28.97
2018-09-18T15:53:49.354Z,28.90
2018-09-18T15:56:17.916Z,28.91
2018-09-18T15:58:46.499Z,28.85
2018-09-18T16:01:15.147Z,29.25
2018-09-18T16:03:43.720Z,29.28
2018-09-18T16:06:12.251Z,29.19
2018-09-18T16:08:41.547Z,29.09
2018-09-18T16:11:10.104Z,29.03
2018-09-18T16:13:38.719Z,28.94
2018-09-18T16:16:07.717Z,28.92
2018-09-18T16:18:36.279Z,28.86
2018-09-18T16:21:04.835Z,28.86
2018-09-18T16:26:02.132Z,28.73
2018-09-18T16:28:30.680Z,28.68
2018-09-18T16:30:59.364Z,28.65
2018-09-18T16:33:27.911Z,28.61
2018-09-18T16:35:56.447Z,28.61
2018-09-18T16:38:25.046Z,28.57
2018-09-18T16:40:53.603Z,28.50
2018-09-18T16:43:22.589Z,28.47
2018-09-18T16:45:51.524Z,28.36
2018-09-18T16:48:20.150Z,28.28
2018-09-18T16:50:48.688Z,28.24
2018-09-18T16:53:17.372Z,28.17
2018-09-18T16:55:45.967Z,28.06
2018-09-18T16:58:14.541Z,27.98
2018-09-18T17:00:43.244Z,27.87
2018-09-18T17:03:11.820Z,27.84
2018-09-18T17:05:40.455Z,27.79
2018-09-18T17:08:09.135Z,27.61
2018-09-18T17:10:37.859Z,27.57
2018-09-18T17:13:06.419Z,27.49
2018-09-18T17:15:34.983Z,27.44
2018-09-18T17:18:03.883Z,27.34
2018-09-18T17:20:32.429Z,27.23
2018-09-18T17:23:01.042Z,26.44
2018-09-18T17:25:29.580Z,26.29
2018-09-18T17:27:58.128Z,26.13
2018-09-18T17:30:26.730Z,25.93
2018-09-18T17:32:55.282Z,26.13
2018-09-18T17:35:23.859Z,26.07
2018-09-18T17:37:52.445Z,25.91
2018-09-18T17:40:21.010Z,25.66
2018-09-18T17:42:49.559Z,25.38
2018-09-18T17:45:18.240Z,25.44
2018-09-18T17:47:46.799Z,25.47
2018-09-18T17:50:15.419Z,25.47
2018-09-18T17:52:43.995Z,25.38
2018-09-18T17:55:12.587Z,25.44
2018-09-18T17:57:41.145Z,25.47
2018-09-18T18:00:09.913Z,25.45
2018-09-18T18:02:38.563Z,25.29
2018-09-18T18:05:07.156Z,25.24
2018-09-18T18:07:36.031Z,25.16
2018-09-18T18:10:04.612Z,25.04
2018-09-18T18:12:33.179Z,24.87
2018-09-18T18:15:01.768Z,24.89
2018-09-18T18:17:30.432Z,24.80
2018-09-18T18:19:58.954Z,24.62
2018-09-18T18:22:28.013Z,24.69
2018-09-18T18:24:56.995Z,24.63
2018-09-18T18:27:25.560Z,24.60
2018-09-18T18:29:54.476Z,24.58
2018-09-18T18:32:23.059Z,24.67
2018-09-18T18:34:51.614Z,24.75
2018-09-18T18:37:20.256Z,24.72
2018-09-18T18:39:48.821Z,24.57
2018-09-18T18:42:17.368Z,24.56
2018-09-18T18:44:46.167Z,24.64
2018-09-18T18:47:14.730Z,24.68
2018-09-18T18:49:43.279Z,24.70
2018-09-18T18:52:11.977Z,24.75
2018-09-18T18:54:40.557Z,24.73
2018-09-18T18:57:09.125Z,24.72
2018-09-18T18:59:37.796Z,24.67
2018-09-18T19:02:06.351Z,24.68
2018-09-18T19:04:34.960Z,24.61
2018-09-18T19:07:03.716Z,24.55
2018-09-18T19:09:32.269Z,24.59
2018-09-18T19:12:00.836Z,24.58
2018-09-18T19:14:29.759Z,24.62
2018-09-18T19:16:58.335Z,24.61
2018-09-18T19:19:26.989Z,24.62
2018-09-18T19:21:55.691Z,24.57
2018-09-18T19:24:24.296Z,24.56
2018-09-18T19:26:52.874Z,24.51
2018-09-18T19:29:21.480Z,24.37
2018-09-18T19:31:50.055Z,24.42
2018-09-18T19:34:18.613Z,24.32
2018-09-18T19:36:47.261Z,24.19
2018-09-18T19:39:15.841Z,24.07
2018-09-18T19:41:44.403Z,24.07
2018-09-18T19:44:13.099Z,24.07
2018-09-18T19:46:41.664Z,24.04
2018-09-18T19:49:10.219Z,23.96
2018-09-18T19:51:38.933Z,23.87
2018-09-18T19:54:07.512Z,23.85
2018-09-18T19:56:36.116Z,23.84
2018-09-18T19:59:05.010Z,23.75
2018-09-18T20:01:33.625Z,23.74
2018-09-18T20:04:02.169Z,23.73
2018-09-18T20:06:30.851Z,23.71
2018-09-18T20:08:59.408Z,23.54
2018-09-18T20:11:27.976Z,23.35
2018-09-18T20:13:56.851Z,23.09
2018-09-18T20:16:25.404Z,23.17
2018-09-18T20:18:54.030Z,23.13
2018-09-18T20:21:22.705Z,22.98
2018-09-18T20:23:51.252Z,22.82
2018-09-18T20:26:19.844Z,22.79
2018-09-18T20:28:48.469Z,22.72
2018-09-18T20:31:16.991Z,22.55
2018-09-18T20:33:45.548Z,22.50
2018-09-18T20:36:14.759Z,22.62
2018-09-18T20:38:43.231Z,22.62
2018-09-18T20:41:12.195Z,22.62
2018-09-18T20:43:40.860Z,22.77
2018-09-18T20:46:09.427Z,22.79
2018-09-18T20:48:38.262Z,22.67
2018-09-18T20:51:06.904Z,22.60
2018-09-18T20:53:35.456Z,22.50
2018-09-18T20:56:04.027Z,22.47
2018-09-18T20:58:32.615Z,22.41
2018-09-18T21:01:01.224Z,22.31
2018-09-18T21:03:29.984Z,22.42
2018-09-18T21:05:58.579Z,22.33
2018-09-18T21:08:27.187Z,22.38
2018-09-18T21:10:56.123Z,22.29
2018-09-18T21:13:25.221Z,22.11
2018-09-18T21:15:53.788Z,22.18
2018-09-18T21:18:22.363Z,22.04
2018-09-18T21:20:51.046Z,22.10
2018-09-18T21:23:19.539Z,22.05
2018-09-18T21:26:08.534Z,22.10
2018-09-18T21:28:37.085Z,22.05
2018-09-18T21:31:05.675Z,22.06
2018-09-18T21:33:34.259Z,22.04
2018-09-18T21:36:02.828Z,22.05
2018-09-18T21:38:31.962Z,21.87
2018-09-18T21:41:00.639Z,21.97
2018-09-18T21:43:30.116Z,21.99
2018-09-18T21:45:58.681Z,21.97
2018-09-18T21:48:27.365Z,21.91
2018-09-18T21:50:55.915Z,21.88
2018-09-18T21:53:24.544Z,21.90
2018-09-18T21:55:53.168Z,21.77
2018-09-18T21:58:21.706Z,21.85
2018-09-18T22:00:50.271Z,21.80
2018-09-18T22:03:19.319Z,21.86
2018-09-18T22:05:47.963Z,21.83
2018-09-18T22:08:16.517Z,21.74
2018-09-18T22:10:45.179Z,21.65
2018-09-18T22:13:13.726Z,21.72
2018-09-18T22:15:42.280Z,21.75
2018-09-18T22:18:10.984Z,21.74
2018-09-18T22:20:39.560Z,21.72
2018-09-18T22:23:08.115Z,21.69
2018-09-18T22:25:36.808Z,21.77
2018-09-18T22:28:05.366Z,21.93
2018-09-18T22:30:33.917Z,21.93
2018-09-18T22:33:02.596Z,21.91
2018-09-18T22:35:31.209Z,21.90
2018-09-18T22:37:59.763Z,21.90
2018-09-18T22:40:28.633Z,21.87
2018-09-18T22:42:57.240Z,21.82
2018-09-18T22:45:25.752Z,21.84
2018-09-18T22:47:54.617Z,21.75
2018-09-18T22:50:23.167Z,21.80
2018-09-18T22:52:51.738Z,21.78
2018-09-18T22:55:20.406Z,21.68
2018-09-18T22:57:48.961Z,21.62
2018-09-18T23:00:17.516Z,21.66
2018-09-18T23:02:46.739Z,21.58
2018-09-18T23:05:15.786Z,21.65
2018-09-18T23:07:44.775Z,21.71
2018-09-18T23:10:13.343Z,21.77
2018-09-18T23:12:41.947Z,21.78
2018-09-18T23:15:10.527Z,21.80
2018-09-18T23:17:39.110Z,21.71
2018-09-18T23:20:08.116Z,21.75
2018-09-18T23:22:36.663Z,21.75
2018-09-18T23:25:06.053Z,21.78
2018-09-18T23:27:34.683Z,21.72
2018-09-18T23:30:04.149Z,21.73
2018-09-18T23:32:33.211Z,21.68
2018-09-18T23:35:01.796Z,21.72
2018-09-18T23:37:30.368Z,21.72
2018-09-18T23:39:59.027Z,21.72
2018-09-18T23:42:27.570Z,21.56
2018-09-18T23:44:56.131Z,21.57
2018-09-18T23:47:24.711Z,21.55
2018-09-18T23:49:53.335Z,21.55
2018-09-18T23:52:21.887Z,21.53
2018-09-18T23:54:50.721Z,21.49
2018-09-18T23:57:19.292Z,21.53
2018-09-18T23:59:47.835Z,21.52
